createdAt,value
2023-01-18T00:03:14.527Z,0.60
2023-01-18T00:07:16.625Z,0.60
2023-01-18T00:11:19.024Z,0.58
2023-01-18T00:15:21.201Z,0.35
2023-01-18T00:19:23.347Z,0.41
2023-01-18T00:23:25.424Z,0.43
2023-01-18T00:27:27.533Z,0.52
2023-01-18T00:31:30.675Z,0.63
2023-01-18T00:35:32.780Z,0.59
2023-01-18T00:39:34.869Z,0.58
2023-01-18T00:43:40.067Z,0.53
2023-01-18T00:47:42.385Z,0.47
2023-01-18T00:51:44.518Z,0.46
2023-01-18T00:55:47.513Z,0.50
2023-01-18T00:59:49.701Z,0.51
2023-01-18T01:04:10.569Z,0.51
2023-01-18T01:08:17.600Z,0.54
2023-01-18T01:12:38.243Z,0.50
2023-01-18T01:16:58.820Z,0.46
2023-01-18T01:21:23.282Z,0.37
2023-01-18T01:25:43.897Z,0.26
2023-01-18T01:29:46.045Z,0.23
2023-01-18T01:33:51.050Z,0.16
2023-01-18T01:37:53.158Z,0.22
2023-01-18T01:41:55.252Z,0.26
2023-01-18T01:45:57.455Z,0.34
2023-01-18T01:50:06.055Z,0.42
2023-01-18T01:54:14.079Z,0.37
2023-01-18T01:58:24.394Z,0.36
2023-01-18T02:02:27.607Z,0.29
2023-01-18T02:06:36.079Z,0.26
2023-01-18T02:10:38.562Z,0.13
2023-01-18T02:14:41.225Z,0.18
2023-01-18T02:18:59.428Z,0.21
2023-01-18T02:23:16.688Z,0.26
2023-01-18T02:27:18.633Z,0.28
2023-01-18T02:31:27.801Z,0.24
2023-01-18T02:35:44.925Z,0.22
2023-01-18T02:40:11.529Z,0.22
2023-01-18T02:44:36.714Z,0.23
2023-01-18T02:48:42.662Z,0.23
2023-01-18T02:52:53.610Z,0.28
2023-01-18T02:56:59.158Z,0.32
2023-01-18T03:01:17.901Z,0.44
2023-01-18T03:05:23.197Z,0.45
2023-01-18T03:09:27.371Z,0.43
2023-01-18T03:13:41.734Z,0.43
2023-01-18T03:17:51.295Z,0.42
2023-01-18T03:21:53.527Z,0.48
2023-01-18T03:25:57.555Z,0.51
2023-01-18T03:30:18.262Z,0.52
2023-01-18T03:34:35.719Z,0.58
2023-01-18T03:38:39.754Z,0.66
2023-01-18T03:42:56.612Z,0.69
2023-01-18T03:46:58.899Z,0.69
2023-01-18T03:51:32.724Z,0.77
2023-01-18T03:55:44.517Z,0.81
2023-01-18T03:59:47.500Z,0.86
2023-01-18T04:03:49.717Z,0.91
2023-01-18T04:07:52.039Z,0.92
2023-01-18T04:11:54.137Z,0.85
2023-01-18T04:15:56.306Z,0.84
2023-01-18T04:19:58.373Z,0.78
2023-01-18T04:24:00.701Z,0.80
2023-01-18T04:28:02.760Z,0.85
2023-01-18T04:32:05.592Z,0.76
2023-01-18T04:36:08.656Z,0.69
2023-01-18T04:40:11.582Z,0.66
2023-01-18T04:44:14.125Z,0.60
2023-01-18T04:48:16.187Z,0.63
2023-01-18T04:52:19.192Z,0.59
2023-01-18T04:56:21.448Z,0.61
2023-01-18T05:00:24.197Z,0.57
2023-01-18T05:04:26.371Z,0.55
2023-01-18T05:08:28.518Z,0.52
2023-01-18T05:12:30.850Z,0.41
2023-01-18T05:16:33.090Z,0.36
2023-01-18T05:20:35.208Z,0.33
2023-01-18T05:24:37.250Z,0.37
2023-01-18T05:28:39.766Z,0.38
2023-01-18T05:32:41.824Z,0.37
2023-01-18T05:36:43.899Z,0.40
2023-01-18T05:40:48.801Z,0.38
2023-01-18T05:44:50.856Z,0.34
2023-01-18T05:48:57.132Z,0.30
2023-01-18T05:53:00.342Z,0.27
2023-01-18T05:57:02.681Z,0.27
2023-01-18T06:01:05.137Z,0.26
2023-01-18T06:05:07.579Z,0.32
2023-01-18T06:09:09.704Z,0.33
2023-01-18T06:13:11.726Z,0.34
2023-01-18T06:17:13.933Z,0.35
2023-01-18T06:21:17.902Z,0.41
2023-01-18T06:25:20.246Z,0.43
2023-01-18T06:29:22.311Z,0.41
2023-01-18T06:33:24.816Z,0.43
2023-01-18T06:37:26.963Z,0.45
2023-01-18T06:41:29.308Z,0.71
2023-01-18T06:45:31.495Z,0.64
2023-01-18T06:49:33.607Z,0.57
2023-01-18T06:53:37.868Z,0.53
2023-01-18T06:57:40.622Z,0.48
2023-01-18T07:01:42.730Z,0.47
2023-01-18T07:05:46.470Z,0.47
2023-01-18T07:09:48.530Z,0.45
2023-01-18T07:13:50.997Z,0.40
2023-01-18T07:17:53.063Z,0.34
2023-01-18T07:21:55.121Z,0.94
2023-01-18T07:26:05.552Z,1.29
2023-01-18T07:30:08.255Z,1.09
2023-01-18T07:34:11.108Z,0.91
2023-01-18T07:38:13.174Z,0.78
2023-01-18T07:42:15.302Z,0.72
2023-01-18T07:46:20.710Z,0.74
2023-01-18T07:50:23.098Z,0.69
2023-01-18T07:54:26.155Z,0.63
2023-01-18T07:58:29.079Z,0.61
2023-01-18T08:02:31.278Z,0.61
2023-01-18T08:06:33.739Z,0.64
2023-01-18T08:10:36.542Z,0.65
2023-01-18T08:14:38.574Z,0.69
2023-01-18T08:18:40.673Z,0.81
2023-01-18T08:22:42.699Z,1.06
2023-01-18T08:26:44.838Z,1.12
2023-01-18T08:30:48.199Z,1.10
2023-01-18T08:34:50.603Z,1.13
2023-01-18T08:38:57.506Z,1.16
2023-01-18T08:43:01.609Z,1.19
2023-01-18T08:47:03.878Z,1.18
2023-01-18T08:51:06.040Z,1.21
2023-01-18T08:55:08.813Z,1.23
2023-01-18T08:59:10.916Z,1.39
2023-01-18T09:03:13.400Z,1.52
2023-01-18T09:07:16.515Z,1.61
2023-01-18T09:11:18.869Z,1.68
2023-01-18T09:15:21.454Z,1.71
2023-01-18T09:19:23.575Z,1.72
2023-01-18T09:23:26.021Z,1.74
2023-01-18T09:27:28.091Z,1.71
2023-01-18T09:31:30.737Z,1.73
2023-01-18T09:35:33.703Z,1.77
2023-01-18T09:39:50.813Z,1.78
2023-01-18T09:43:58.260Z,1.87
2023-01-18T09:48:05.004Z,1.92
2023-01-18T09:52:43.293Z,1.95
2023-01-18T09:57:03.254Z,2.09
2023-01-18T10:01:12.156Z,2.21
2023-01-18T10:05:21.482Z,2.32
2023-01-18T10:09:48.539Z,2.37
2023-01-18T10:14:29.067Z,2.47
2023-01-18T10:18:31.230Z,2.57
2023-01-18T10:22:44.024Z,2.65
2023-01-18T10:26:48.434Z,2.69
2023-01-18T10:31:15.433Z,2.76
2023-01-18T10:35:32.073Z,2.77
2023-01-18T10:39:50.837Z,2.75
2023-01-18T10:43:53.403Z,2.82
2023-01-18T10:47:57.998Z,2.93
2023-01-18T10:52:21.458Z,2.95
2023-01-18T10:56:25.874Z,2.99
2023-01-18T11:00:35.530Z,2.96
2023-01-18T11:04:40.388Z,2.95
2023-01-18T11:08:43.855Z,2.98
2023-01-18T11:12:48.067Z,3.07
2023-01-18T11:17:11.007Z,3.01
2023-01-18T11:21:15.261Z,2.96
2023-01-18T11:25:17.799Z,3.01
2023-01-18T11:29:23.010Z,3.06
2023-01-18T11:33:27.604Z,3.04
2023-01-18T11:37:37.438Z,3.13
2023-01-18T11:41:39.567Z,3.20
2023-01-18T11:45:50.787Z,3.19
2023-01-18T11:50:23.838Z,3.14
2023-01-18T11:54:34.586Z,3.09
2023-01-18T11:58:36.807Z,3.04
2023-01-18T12:03:00.389Z,3.07
2023-01-18T12:07:33.293Z,3.05
2023-01-18T12:12:29.464Z,3.16
2023-01-18T12:16:50.218Z,3.15
2023-01-18T12:21:10.587Z,3.25
2023-01-18T12:25:26.114Z,3.16
2023-01-18T12:30:07.335Z,3.10
2023-01-18T12:34:15.025Z,3.15
2023-01-18T12:38:31.416Z,3.16
2023-01-18T12:42:46.620Z,3.23
2023-01-18T12:47:17.327Z,3.32
2023-01-18T12:51:24.174Z,3.34
2023-01-18T12:55:31.565Z,3.30
2023-01-18T12:59:53.467Z,3.15
2023-01-18T13:04:01.862Z,3.12
2023-01-18T13:08:14.567Z,2.95
2023-01-18T13:12:17.398Z,2.90
2023-01-18T13:16:28.172Z,2.90
2023-01-18T13:20:54.092Z,3.00
2023-01-18T13:25:26.291Z,3.13
2023-01-18T13:29:30.088Z,3.22
2023-01-18T13:33:40.922Z,3.13
2023-01-18T13:37:49.188Z,3.06
2023-01-18T13:42:03.806Z,3.00
2023-01-18T13:46:05.849Z,2.99
2023-01-18T13:50:36.862Z,3.01
2023-01-18T13:54:38.939Z,3.06
2023-01-18T13:58:52.955Z,3.06
2023-01-18T14:03:04.628Z,2.94
2023-01-18T14:07:08.008Z,2.85
2023-01-18T14:11:24.261Z,2.78
2023-01-18T14:15:44.124Z,2.69
2023-01-18T14:19:49.214Z,2.66
2023-01-18T14:24:06.434Z,2.67
2023-01-18T14:28:17.087Z,2.65
2023-01-18T14:32:26.136Z,2.63
2023-01-18T14:36:28.870Z,2.58
2023-01-18T14:40:31.469Z,2.51
2023-01-18T14:44:57.382Z,2.46
2023-01-18T14:49:01.710Z,2.38
2023-01-18T14:53:04.724Z,2.34
2023-01-18T14:57:09.920Z,2.25
2023-01-18T15:01:33.787Z,2.24
2023-01-18T15:05:36.061Z,2.23
2023-01-18T15:09:40.723Z,2.23
2023-01-18T15:13:50.261Z,2.20
2023-01-18T15:17:54.545Z,2.16
2023-01-18T15:22:00.438Z,2.14
2023-01-18T15:26:02.850Z,2.04
2023-01-18T15:30:12.871Z,2.01
2023-01-18T15:34:16.821Z,2.00
2023-01-18T15:38:18.975Z,1.94
2023-01-18T15:42:21.196Z,1.88
2023-01-18T15:46:25.266Z,1.84
2023-01-18T15:50:36.191Z,1.77
2023-01-18T15:54:38.362Z,1.72
2023-01-18T15:58:55.603Z,1.64
2023-01-18T16:02:58.176Z,1.55
2023-01-18T16:07:41.905Z,1.48
2023-01-18T16:11:51.636Z,1.41
2023-01-18T16:16:16.970Z,1.38
2023-01-18T16:20:19.525Z,1.32
2023-01-18T16:24:53.915Z,1.26
2023-01-18T16:29:06.551Z,1.28
2023-01-18T16:33:19.175Z,1.15
2023-01-18T16:37:21.785Z,1.06
2023-01-18T16:41:23.880Z,0.98
2023-01-18T16:45:26.233Z,0.94
2023-01-18T16:49:28.454Z,0.82
2023-01-18T16:53:31.585Z,0.73
2023-01-18T16:57:33.752Z,0.70
2023-01-18T17:01:36.198Z,0.63
2023-01-18T17:05:38.433Z,0.57
2023-01-18T17:09:48.326Z,0.49
2023-01-18T17:13:50.895Z,0.44
2023-01-18T17:17:52.979Z,0.41
2023-01-18T17:21:55.154Z,0.37
2023-01-18T17:25:59.469Z,0.25
2023-01-18T17:30:02.119Z,0.22
2023-01-18T17:34:04.912Z,0.19
2023-01-18T17:38:11.935Z,0.14
2023-01-18T17:42:29.413Z,0.03
2023-01-18T17:46:33.651Z,-0.17
2023-01-18T17:50:35.918Z,-0.18
2023-01-18T17:54:38.019Z,-0.26
2023-01-18T17:58:40.913Z,-0.36
2023-01-18T18:02:43.575Z,-0.36
2023-01-18T18:06:53.712Z,-0.34
2023-01-18T18:10:56.293Z,-0.34
2023-01-18T18:14:58.444Z,-0.44
2023-01-18T18:19:00.788Z,-0.69
2023-01-18T18:23:03.347Z,-0.78
2023-01-18T18:27:06.107Z,-0.86
2023-01-18T18:31:16.533Z,-0.92
2023-01-18T18:35:25.437Z,-0.89
2023-01-18T18:39:28.327Z,-0.91
2023-01-18T18:43:30.538Z,-0.99
2023-01-18T18:47:32.923Z,-1.01
2023-01-18T18:51:38.575Z,-1.03
2023-01-18T18:55:40.930Z,-1.03
2023-01-18T18:59:43.013Z,-1.10
2023-01-18T19:03:45.263Z,-1.17
2023-01-18T19:07:51.173Z,-1.23
2023-01-18T19:11:55.601Z,-1.22
2023-01-18T19:16:01.044Z,-1.21
2023-01-18T19:20:04.332Z,-1.30
2023-01-18T19:24:07.060Z,-1.39
2023-01-18T19:28:09.812Z,-1.43
2023-01-18T19:32:12.125Z,-1.47
2023-01-18T19:36:16.049Z,-1.60
2023-01-18T19:40:18.485Z,-1.55
2023-01-18T19:44:20.753Z,-1.63
2023-01-18T19:48:22.831Z,-1.78
2023-01-18T19:52:24.944Z,-1.83
2023-01-18T19:56:28.997Z,-1.83
2023-01-18T20:00:31.074Z,-1.75
2023-01-18T20:04:33.901Z,-1.69
2023-01-18T20:08:36.575Z,-1.65
2023-01-18T20:12:39.262Z,-1.64
2023-01-18T20:16:42.116Z,-1.70
2023-01-18T20:20:45.278Z,-1.66
2023-01-18T20:24:47.503Z,-1.64
2023-01-18T20:28:52.549Z,-1.63
2023-01-18T20:32:54.584Z,-1.73
2023-01-18T20:36:56.751Z,-1.81
2023-01-18T20:40:59.183Z,-1.83
2023-01-18T20:45:01.495Z,-1.81
2023-01-18T20:49:04.637Z,-1.81
2023-01-18T20:53:07.383Z,-1.90
2023-01-18T20:57:09.568Z,-1.81
2023-01-18T21:01:18.273Z,-1.81
2023-01-18T21:05:20.421Z,-1.95
2023-01-18T21:09:23.576Z,-1.94
2023-01-18T21:13:25.801Z,-1.95
2023-01-18T21:17:28.015Z,-1.94
2023-01-18T21:21:31.741Z,-2.00
2023-01-18T21:25:33.979Z,-2.01
2023-01-18T21:29:36.912Z,-1.98
2023-01-18T21:33:39.036Z,-1.97
2023-01-18T21:37:41.810Z,-1.91
2023-01-18T21:42:04.072Z,-1.89
2023-01-18T21:46:09.237Z,-1.89
2023-01-18T21:50:30.037Z,-1.83
2023-01-18T21:54:32.070Z,-1.76
2023-01-18T21:58:52.805Z,-1.72
2023-01-18T22:02:54.870Z,-1.76
2023-01-18T22:07:00.351Z,-1.78
2023-01-18T22:11:02.362Z,-1.76
2023-01-18T22:15:05.251Z,-1.80
2023-01-18T22:19:07.467Z,-1.82
2023-01-18T22:23:09.788Z,-1.76
2023-01-18T22:27:11.792Z,-1.81
2023-01-18T22:31:14.771Z,-1.81
2023-01-18T22:35:16.828Z,-1.86
2023-01-18T22:39:18.875Z,-1.86
2023-01-18T22:43:20.944Z,-1.88
2023-01-18T22:47:23.001Z,-1.88
2023-01-18T22:51:25.350Z,-1.88
2023-01-18T22:55:27.383Z,-1.76
2023-01-18T22:59:29.380Z,-1.60
2023-01-18T23:03:31.431Z,-1.50
2023-01-18T23:07:33.532Z,-1.47
2023-01-18T23:11:35.700Z,-1.42
2023-01-18T23:16:02.981Z,-1.39
2023-01-18T23:20:06.804Z,-1.37
2023-01-18T23:24:08.811Z,-1.33
2023-01-18T23:28:10.880Z,-1.32
2023-01-18T23:32:12.878Z,-1.31
2023-01-18T23:36:14.907Z,-1.33
2023-01-18T23:40:35.766Z,-1.31
2023-01-18T23:44:56.196Z,-1.28
2023-01-18T23:49:16.680Z,-1.26
2023-01-18T23:53:37.310Z,-1.12
2023-01-18T23:57:39.458Z,-1.00
